createdAt,value
2018-10-03T00:01:11.236Z,55.54
2018-10-03T00:03:38.843Z,55.43
2018-10-03T00:06:06.458Z,55.27
2018-10-03T00:08:34.191Z,54.87
2018-10-03T00:11:01.760Z,55.51
2018-10-03T00:13:29.378Z,55.56
2018-10-03T00:15:57.092Z,55.33
2018-10-03T00:18:24.696Z,55.21
2018-10-03T00:20:52.279Z,55.51
2018-10-03T00:23:19.897Z,54.96
2018-10-03T00:25:47.479Z,54.80
2018-10-03T00:28:15.121Z,55.38
2018-10-03T00:30:42.723Z,54.77
2018-10-03T00:33:10.327Z,55.43
2018-10-03T00:35:37.933Z,55.40
2018-10-03T00:38:05.589Z,54.97
2018-10-03T00:40:33.220Z,55.31
2018-10-03T00:43:00.934Z,54.85
2018-10-03T00:45:28.548Z,54.96
2018-10-03T00:47:56.202Z,55.41
2018-10-03T00:50:23.751Z,55.33
2018-10-03T00:52:51.420Z,55.29
2018-10-03T00:55:18.988Z,55.29
2018-10-03T00:57:46.640Z,55.44
2018-10-03T01:00:14.331Z,54.94
2018-10-03T01:02:41.974Z,55.37
2018-10-03T01:05:09.610Z,55.41
2018-10-03T01:07:37.216Z,55.08
2018-10-03T01:10:04.876Z,54.79
2018-10-03T01:12:32.501Z,55.54
2018-10-03T01:15:00.194Z,54.97
2018-10-03T01:17:27.791Z,55.25
2018-10-03T01:19:55.312Z,54.66
2018-10-03T01:22:22.949Z,55.40
2018-10-03T01:24:50.629Z,54.69
2018-10-03T01:27:18.220Z,54.65
2018-10-03T01:29:45.839Z,54.68
2018-10-03T01:32:13.452Z,54.93
2018-10-03T01:34:40.990Z,54.76
2018-10-03T01:37:08.621Z,55.02
2018-10-03T01:39:36.187Z,55.25
2018-10-03T01:42:03.893Z,54.66
2018-10-03T01:44:31.591Z,54.50
2018-10-03T01:46:59.239Z,54.48
2018-10-03T01:49:26.877Z,54.35
2018-10-03T01:51:54.425Z,54.41
2018-10-03T01:54:22.026Z,54.43
2018-10-03T01:56:49.672Z,54.66
2018-10-03T01:59:17.332Z,54.90
2018-10-03T02:01:44.908Z,54.46
2018-10-03T02:04:12.516Z,54.77
2018-10-03T02:06:40.138Z,55.02
2018-10-03T02:09:07.746Z,54.52
2018-10-03T02:11:35.392Z,54.49
2018-10-03T02:14:03.020Z,55.36
2018-10-03T02:16:30.664Z,55.01
2018-10-03T02:18:58.282Z,54.57
2018-10-03T02:21:25.899Z,55.11
2018-10-03T02:23:53.510Z,54.77
2018-10-03T02:26:21.137Z,54.56
2018-10-03T02:28:48.735Z,55.09
2018-10-03T02:31:16.315Z,55.74
2018-10-03T02:33:43.933Z,54.79
2018-10-03T02:36:11.573Z,54.90
2018-10-03T02:38:39.222Z,54.75
2018-10-03T02:41:06.853Z,54.90
2018-10-03T02:43:34.515Z,54.96
2018-10-03T02:46:02.160Z,54.72
2018-10-03T02:48:29.768Z,54.98
2018-10-03T02:50:57.440Z,55.04
2018-10-03T02:53:25.072Z,54.85
2018-10-03T02:55:52.767Z,55.87
2018-10-03T02:58:20.377Z,54.91
2018-10-03T03:00:47.942Z,55.66
2018-10-03T03:03:15.584Z,55.64
2018-10-03T03:05:43.159Z,55.84
2018-10-03T03:08:10.941Z,55.89
2018-10-03T03:10:38.621Z,55.83
2018-10-03T03:13:06.259Z,55.73
2018-10-03T03:15:33.844Z,55.65
2018-10-03T03:18:01.607Z,55.28
2018-10-03T03:20:29.240Z,55.26
2018-10-03T03:22:56.894Z,55.20
2018-10-03T03:25:24.499Z,55.48
2018-10-03T03:27:52.098Z,55.17
2018-10-03T03:30:19.709Z,55.21
2018-10-03T03:32:47.312Z,55.24
2018-10-03T03:35:14.917Z,55.13
2018-10-03T03:37:42.499Z,55.64
2018-10-03T03:40:10.043Z,55.50
2018-10-03T03:42:37.731Z,56.02
2018-10-03T03:45:05.365Z,56.03
2018-10-03T03:47:33.091Z,56.08
2018-10-03T03:50:00.652Z,55.79
2018-10-03T03:52:28.235Z,55.92
2018-10-03T03:54:55.845Z,55.31
2018-10-03T03:57:23.440Z,55.92
2018-10-03T03:59:51.024Z,55.69
2018-10-03T04:02:18.648Z,55.50
2018-10-03T04:04:46.277Z,55.80
2018-10-03T04:07:13.891Z,55.72
2018-10-03T04:09:41.492Z,55.33
2018-10-03T04:12:09.111Z,56.00
2018-10-03T04:14:36.769Z,55.77
2018-10-03T04:17:04.316Z,55.94
2018-10-03T04:19:31.926Z,55.42
2018-10-03T04:21:59.576Z,55.96
2018-10-03T04:24:27.153Z,55.75
2018-10-03T04:26:54.731Z,55.89
2018-10-03T04:29:22.411Z,55.70
2018-10-03T04:31:50.039Z,55.52
2018-10-03T04:34:17.642Z,56.07
2018-10-03T04:36:45.281Z,55.88
2018-10-03T04:39:12.874Z,55.98
2018-10-03T04:41:40.514Z,56.09
2018-10-03T04:44:08.091Z,55.64
2018-10-03T04:46:35.747Z,55.98
2018-10-03T04:49:03.437Z,55.81
2018-10-03T04:51:30.993Z,55.60
2018-10-03T04:53:58.688Z,55.55
2018-10-03T04:56:26.271Z,55.65
2018-10-03T04:58:53.866Z,55.58
2018-10-03T05:01:21.488Z,55.71
2018-10-03T05:03:49.079Z,56.13
2018-10-03T05:06:16.684Z,55.93
2018-10-03T05:08:44.343Z,55.58
2018-10-03T05:11:11.990Z,56.05
2018-10-03T05:13:39.646Z,56.13
2018-10-03T05:16:07.195Z,55.75
2018-10-03T05:18:34.817Z,55.44
2018-10-03T05:21:02.449Z,56.04
2018-10-03T05:23:30.042Z,56.02
2018-10-03T05:25:57.645Z,55.43
2018-10-03T05:28:25.267Z,55.91
2018-10-03T05:30:52.928Z,56.17
2018-10-03T05:33:20.582Z,55.99
2018-10-03T05:35:48.215Z,55.54
2018-10-03T05:38:15.948Z,55.39
2018-10-03T05:40:43.573Z,55.52
2018-10-03T05:43:11.186Z,55.81
2018-10-03T05:45:38.837Z,55.46
2018-10-03T05:48:06.480Z,55.28
2018-10-03T05:50:34.196Z,55.53
2018-10-03T05:53:01.799Z,55.33
2018-10-03T05:55:29.404Z,55.42
2018-10-03T05:57:57.061Z,55.80
2018-10-03T06:00:24.692Z,55.65
2018-10-03T06:02:52.431Z,55.14
2018-10-03T06:05:19.956Z,55.07
2018-10-03T06:07:47.551Z,55.50
2018-10-03T06:10:15.187Z,54.90
2018-10-03T06:12:42.763Z,54.97
2018-10-03T06:15:10.355Z,55.39
2018-10-03T06:17:37.949Z,55.06
2018-10-03T06:20:06.536Z,54.98
2018-10-03T06:22:34.173Z,55.26
2018-10-03T06:25:01.871Z,55.05
2018-10-03T06:27:29.594Z,55.51
2018-10-03T06:29:57.476Z,55.62
2018-10-03T06:32:25.060Z,55.51
2018-10-03T06:34:52.656Z,55.19
2018-10-03T06:37:20.262Z,54.82
2018-10-03T06:39:47.827Z,55.14
2018-10-03T06:42:15.455Z,55.23
2018-10-03T06:44:43.080Z,55.17
2018-10-03T06:47:10.809Z,55.00
2018-10-03T06:49:38.484Z,54.94
2018-10-03T06:52:06.191Z,55.25
2018-10-03T06:54:33.840Z,55.10
2018-10-03T06:57:01.431Z,55.08
2018-10-03T06:59:29.093Z,55.00
2018-10-03T07:01:56.696Z,54.72
2018-10-03T07:04:24.329Z,54.92
2018-10-03T07:06:51.970Z,54.86
2018-10-03T07:09:19.583Z,54.97
2018-10-03T07:11:47.221Z,54.18
2018-10-03T07:14:14.901Z,54.73
2018-10-03T07:16:42.472Z,54.23
2018-10-03T07:19:10.196Z,54.80
2018-10-03T07:21:37.886Z,54.86
2018-10-03T07:24:05.470Z,54.19
2018-10-03T07:26:33.101Z,54.60
2018-10-03T07:29:00.744Z,54.83
2018-10-03T07:31:28.324Z,54.08
2018-10-03T07:33:55.948Z,53.93
2018-10-03T07:36:23.611Z,53.85
2018-10-03T07:38:51.200Z,53.92
2018-10-03T07:41:18.851Z,54.15
2018-10-03T07:43:46.412Z,54.18
2018-10-03T07:46:14.041Z,54.65
2018-10-03T07:48:41.712Z,54.09
2018-10-03T07:51:09.376Z,53.94
2018-10-03T07:53:37.041Z,54.03
2018-10-03T07:56:04.695Z,53.64
2018-10-03T07:58:32.287Z,53.78
2018-10-03T08:00:59.928Z,54.26
2018-10-03T08:03:27.544Z,53.98
2018-10-03T08:05:55.117Z,54.24
2018-10-03T08:08:22.740Z,53.95
2018-10-03T08:10:50.369Z,54.18
2018-10-03T08:13:18.080Z,54.36
2018-10-03T08:15:45.673Z,53.86
2018-10-03T08:18:13.350Z,54.36
2018-10-03T08:20:40.974Z,53.77
2018-10-03T08:23:08.622Z,53.61
2018-10-03T08:25:36.274Z,53.23
2018-10-03T08:28:03.879Z,53.82
2018-10-03T08:30:31.548Z,53.70
2018-10-03T08:32:59.207Z,54.14
2018-10-03T08:35:26.748Z,53.52
2018-10-03T08:37:54.412Z,54.03
2018-10-03T08:42:56.570Z,54.11
2018-10-03T08:45:24.293Z,53.52
2018-10-03T08:47:51.916Z,53.84
2018-10-03T08:50:19.534Z,53.54
2018-10-03T08:52:47.137Z,53.29
2018-10-03T08:55:14.769Z,53.68
2018-10-03T08:57:42.693Z,53.31
2018-10-03T09:00:10.755Z,53.84
2018-10-03T09:02:38.407Z,53.22
2018-10-03T09:05:06.153Z,53.31
2018-10-03T09:07:36.435Z,53.84
2018-10-03T09:10:04.039Z,53.40
2018-10-03T09:12:31.680Z,53.51
2018-10-03T09:14:59.263Z,53.23
2018-10-03T09:17:26.842Z,53.75
2018-10-03T09:19:54.427Z,53.43
2018-10-03T09:22:22.340Z,53.60
2018-10-03T09:24:50.061Z,53.79
2018-10-03T09:27:17.698Z,53.41
2018-10-03T09:29:45.301Z,53.20
2018-10-03T09:32:12.904Z,53.43
2018-10-03T09:34:40.508Z,53.15
2018-10-03T09:37:08.089Z,52.96
2018-10-03T09:39:35.742Z,53.70
2018-10-03T09:42:03.279Z,53.00
2018-10-03T09:44:30.941Z,53.45
2018-10-03T09:46:58.529Z,53.21
2018-10-03T09:49:26.139Z,52.80
2018-10-03T09:51:53.818Z,53.33
2018-10-03T09:54:21.443Z,53.26
2018-10-03T09:56:49.044Z,53.17
2018-10-03T09:59:16.676Z,53.09
2018-10-03T10:01:44.306Z,53.00
2018-10-03T10:04:11.885Z,53.57
2018-10-03T10:06:39.581Z,52.84
2018-10-03T10:09:08.649Z,53.13
2018-10-03T10:11:36.338Z,53.55
2018-10-03T10:14:03.856Z,52.90
2018-10-03T10:16:31.544Z,52.88
2018-10-03T10:18:59.220Z,53.01
2018-10-03T10:21:26.860Z,52.61
2018-10-03T10:23:54.481Z,52.65
2018-10-03T10:26:22.083Z,52.50
2018-10-03T10:28:49.665Z,52.80
2018-10-03T10:31:17.275Z,52.57
2018-10-03T10:33:44.886Z,52.42
2018-10-03T10:36:12.506Z,52.79
2018-10-03T10:38:40.177Z,52.64
2018-10-03T10:41:07.800Z,52.53
2018-10-03T10:43:35.468Z,52.69
2018-10-03T10:46:03.053Z,53.31
2018-10-03T10:48:30.747Z,53.22
2018-10-03T10:50:58.476Z,53.09
2018-10-03T10:53:26.040Z,53.19
2018-10-03T10:55:53.697Z,53.03
2018-10-03T10:58:21.303Z,52.91
2018-10-03T11:00:49.567Z,52.84
2018-10-03T11:03:17.266Z,53.32
2018-10-03T11:05:44.905Z,52.96
2018-10-03T11:08:12.498Z,52.68
2018-10-03T11:10:40.089Z,52.90
2018-10-03T11:13:07.817Z,52.96
2018-10-03T11:15:35.444Z,52.49
2018-10-03T11:18:03.097Z,53.08
2018-10-03T11:20:30.696Z,52.67
2018-10-03T11:22:58.348Z,52.85
2018-10-03T11:25:25.952Z,52.88
2018-10-03T11:27:53.603Z,52.69
2018-10-03T11:30:21.207Z,52.15
2018-10-03T11:32:48.775Z,52.75
2018-10-03T11:35:16.369Z,52.68
2018-10-03T11:37:43.997Z,52.42
2018-10-03T11:40:11.637Z,53.06
2018-10-03T11:42:39.227Z,53.17
2018-10-03T11:45:06.852Z,52.98
2018-10-03T11:47:34.460Z,52.90
2018-10-03T11:50:02.146Z,53.12
2018-10-03T11:52:29.817Z,52.81
2018-10-03T11:54:57.477Z,52.29
2018-10-03T11:57:25.132Z,52.23
2018-10-03T11:59:52.823Z,52.64
2018-10-03T12:02:20.389Z,52.67
2018-10-03T12:04:48.086Z,52.49
2018-10-03T12:07:15.696Z,52.33
2018-10-03T12:09:43.313Z,52.37
2018-10-03T12:12:10.905Z,52.17
2018-10-03T12:14:38.531Z,52.33
2018-10-03T12:17:06.187Z,52.30
2018-10-03T12:19:33.737Z,52.97
2018-10-03T12:22:01.396Z,52.46
2018-10-03T12:24:29.037Z,52.17
2018-10-03T12:26:56.626Z,52.08
2018-10-03T12:29:24.223Z,52.58
2018-10-03T12:31:51.800Z,52.12
2018-10-03T12:34:19.351Z,52.22
2018-10-03T12:36:46.941Z,52.14
2018-10-03T12:39:14.522Z,51.97
2018-10-03T12:41:42.161Z,52.72
2018-10-03T12:44:09.776Z,52.02
2018-10-03T12:46:38.093Z,52.14
2018-10-03T12:49:05.714Z,52.41
2018-10-03T12:51:33.340Z,52.06
2018-10-03T12:54:00.968Z,51.83
2018-10-03T12:56:28.639Z,52.32
2018-10-03T12:58:56.259Z,51.81
2018-10-03T13:01:24.192Z,52.04
2018-10-03T13:03:51.796Z,51.86
2018-10-03T13:06:19.421Z,51.84
2018-10-03T13:08:47.030Z,51.54
2018-10-03T13:11:14.643Z,51.65
2018-10-03T13:13:42.305Z,51.48
2018-10-03T13:16:10.163Z,51.66
2018-10-03T13:18:37.788Z,51.44
2018-10-03T13:21:05.455Z,51.28
2018-10-03T13:23:33.112Z,51.01
2018-10-03T13:26:00.752Z,51.60
2018-10-03T13:28:28.345Z,51.48
2018-10-03T13:30:55.930Z,51.28
2018-10-03T13:33:23.556Z,51.27
2018-10-03T13:35:51.358Z,51.20
2018-10-03T13:38:18.973Z,51.37
2018-10-03T13:40:46.673Z,50.73
2018-10-03T13:43:14.239Z,50.79
2018-10-03T13:45:41.931Z,50.80
2018-10-03T13:48:09.556Z,50.39
2018-10-03T13:50:37.256Z,50.58
2018-10-03T13:53:04.873Z,49.96
2018-10-03T13:55:32.532Z,50.06
2018-10-03T13:58:00.235Z,49.95
2018-10-03T14:00:28.184Z,50.68
2018-10-03T14:02:55.828Z,51.19
2018-10-03T14:05:23.380Z,51.36
2018-10-03T14:07:51.294Z,51.31
2018-10-03T14:10:18.921Z,51.39
2018-10-03T14:12:46.515Z,51.28
2018-10-03T14:15:14.133Z,51.05
2018-10-03T14:17:41.779Z,51.27
2018-10-03T14:20:09.604Z,50.90
2018-10-03T14:22:37.284Z,50.25
2018-10-03T14:25:05.093Z,49.77
2018-10-03T14:27:32.662Z,49.64
2018-10-03T14:30:00.353Z,49.73
2018-10-03T14:32:27.976Z,50.17
2018-10-03T14:34:55.602Z,50.73
2018-10-03T14:37:23.267Z,50.56
2018-10-03T14:39:50.935Z,50.65
2018-10-03T14:42:18.562Z,50.67
2018-10-03T14:44:46.200Z,50.70
2018-10-03T14:47:13.812Z,50.94
2018-10-03T14:49:41.434Z,50.76
2018-10-03T14:52:09.083Z,50.51
2018-10-03T14:54:36.710Z,49.61
2018-10-03T14:57:04.325Z,48.82
2018-10-03T14:59:31.924Z,47.72
2018-10-03T15:01:59.568Z,47.98
2018-10-03T15:04:27.187Z,47.55
2018-10-03T15:06:54.768Z,47.54
2018-10-03T15:09:22.406Z,48.15
2018-10-03T15:11:50.044Z,48.94
2018-10-03T15:14:17.656Z,49.78
2018-10-03T15:16:45.311Z,50.15
2018-10-03T15:19:12.926Z,50.64
2018-10-03T15:21:40.484Z,50.77
2018-10-03T15:24:08.169Z,50.79
2018-10-03T15:26:35.841Z,50.95
2018-10-03T15:29:03.440Z,50.79
2018-10-03T15:31:31.011Z,51.05
2018-10-03T15:33:58.683Z,51.09
2018-10-03T15:36:26.419Z,51.11
2018-10-03T15:38:54.041Z,50.72
2018-10-03T15:41:21.747Z,49.51
2018-10-03T15:43:49.393Z,48.66
2018-10-03T15:46:17.029Z,48.76
2018-10-03T15:48:44.786Z,49.00
2018-10-03T15:51:12.581Z,48.47
2018-10-03T15:53:40.211Z,49.53
2018-10-03T15:56:07.792Z,49.89
2018-10-03T15:58:35.399Z,50.23
2018-10-03T16:01:02.960Z,50.46
2018-10-03T16:03:30.574Z,50.50
2018-10-03T16:05:58.182Z,50.82
2018-10-03T16:08:25.810Z,50.88
2018-10-03T16:10:53.476Z,50.88
2018-10-03T16:13:21.092Z,50.57
2018-10-03T16:15:48.695Z,50.77
2018-10-03T16:18:16.341Z,51.09
2018-10-03T16:20:44.002Z,51.31
2018-10-03T16:23:11.673Z,51.75
2018-10-03T16:25:39.361Z,51.86
2018-10-03T16:28:06.939Z,52.16
2018-10-03T16:30:34.553Z,52.04
2018-10-03T16:33:02.227Z,52.27
2018-10-03T16:35:29.922Z,52.50
2018-10-03T16:37:57.537Z,52.31
2018-10-03T16:40:25.168Z,52.54
2018-10-03T16:42:52.816Z,52.59
2018-10-03T16:45:20.454Z,52.88
2018-10-03T16:47:48.154Z,52.73
2018-10-03T16:50:15.775Z,52.61
2018-10-03T16:52:43.399Z,53.11
2018-10-03T16:55:11.064Z,53.21
2018-10-03T16:57:38.700Z,52.97
2018-10-03T17:00:06.434Z,53.13
2018-10-03T17:02:34.000Z,53.52
2018-10-03T17:05:01.737Z,52.88
2018-10-03T17:07:29.316Z,53.26
2018-10-03T17:09:56.968Z,53.73
2018-10-03T17:12:24.619Z,53.34
2018-10-03T17:14:52.324Z,53.38
2018-10-03T17:17:19.927Z,53.77
2018-10-03T17:19:47.592Z,53.66
2018-10-03T17:22:15.253Z,53.91
2018-10-03T17:24:42.868Z,53.70
2018-10-03T17:27:10.498Z,53.72
2018-10-03T17:29:38.060Z,53.73
2018-10-03T17:32:05.762Z,53.58
2018-10-03T17:34:33.398Z,53.64
2018-10-03T17:37:01.004Z,53.96
2018-10-03T17:39:28.879Z,54.03
2018-10-03T17:41:56.594Z,53.61
2018-10-03T17:44:24.495Z,53.63
2018-10-03T17:46:53.482Z,53.87
2018-10-03T17:49:21.131Z,54.04
2018-10-03T17:51:48.741Z,53.74
2018-10-03T17:54:16.407Z,53.73
2018-10-03T17:56:44.103Z,53.65
2018-10-03T17:59:11.804Z,54.12
2018-10-03T18:01:48.299Z,54.12
2018-10-03T18:04:15.922Z,53.92
2018-10-03T18:06:43.574Z,54.40
2018-10-03T18:09:11.823Z,54.45
2018-10-03T18:11:39.503Z,54.43
2018-10-03T18:14:07.365Z,54.07
2018-10-03T18:16:35.052Z,54.29
2018-10-03T18:19:02.660Z,54.07
2018-10-03T18:21:30.215Z,54.08
2018-10-03T18:23:57.835Z,54.54
2018-10-03T18:26:25.423Z,54.31
2018-10-03T18:28:53.076Z,53.97
2018-10-03T18:31:20.757Z,54.91
2018-10-03T18:33:48.293Z,54.43
2018-10-03T18:36:15.900Z,54.40
2018-10-03T18:38:43.561Z,54.30
2018-10-03T18:41:11.194Z,54.12
2018-10-03T18:43:38.817Z,54.61
2018-10-03T18:46:06.417Z,54.65
2018-10-03T18:48:34.000Z,54.29
2018-10-03T18:51:01.616Z,54.46
2018-10-03T18:53:29.284Z,54.38
2018-10-03T18:55:56.904Z,54.40
2018-10-03T18:58:24.610Z,54.75
2018-10-03T19:00:52.309Z,54.23
2018-10-03T19:03:19.950Z,54.56
2018-10-03T19:05:47.669Z,54.76
2018-10-03T19:08:15.460Z,54.48
2018-10-03T19:10:43.016Z,54.18
2018-10-03T19:13:10.638Z,54.49
2018-10-03T19:15:38.252Z,54.08
2018-10-03T19:18:05.986Z,54.18
2018-10-03T19:20:33.925Z,54.52
2018-10-03T19:23:01.623Z,54.39
2018-10-03T19:25:29.236Z,54.27
2018-10-03T19:27:56.847Z,54.72
2018-10-03T19:30:24.530Z,54.80
2018-10-03T19:32:52.202Z,54.37
2018-10-03T19:35:19.861Z,54.97
2018-10-03T19:37:48.369Z,54.89
2018-10-03T19:40:16.160Z,54.96
2018-10-03T19:42:43.863Z,54.67
2018-10-03T19:45:11.423Z,54.70
2018-10-03T19:47:39.064Z,54.56
2018-10-03T19:50:06.691Z,54.61
2018-10-03T19:52:34.331Z,54.42
2018-10-03T19:55:01.935Z,55.06
2018-10-03T19:57:29.596Z,54.67
2018-10-03T19:59:57.283Z,54.66
2018-10-03T20:02:24.933Z,54.71
2018-10-03T20:04:52.545Z,54.72
2018-10-03T20:07:20.109Z,55.12
2018-10-03T20:09:47.770Z,54.98
2018-10-03T20:12:15.427Z,54.67
2018-10-03T20:14:42.999Z,54.49
2018-10-03T20:17:10.595Z,54.84
2018-10-03T20:19:38.277Z,54.48
2018-10-03T20:22:08.903Z,55.03
2018-10-03T20:24:36.796Z,55.12
2018-10-03T20:27:04.467Z,54.72
2018-10-03T20:29:32.163Z,55.19
2018-10-03T20:31:59.824Z,54.63
2018-10-03T20:34:27.462Z,55.26
2018-10-03T20:36:55.036Z,54.79
2018-10-03T20:39:22.623Z,54.89
2018-10-03T20:41:50.352Z,54.86
2018-10-03T20:44:17.962Z,54.90
2018-10-03T20:46:45.580Z,55.23
2018-10-03T20:49:13.216Z,55.30
2018-10-03T20:51:40.796Z,54.73
2018-10-03T20:54:08.418Z,55.05
2018-10-03T20:56:35.993Z,54.57
2018-10-03T20:59:03.685Z,55.03
2018-10-03T21:01:31.337Z,55.33
2018-10-03T21:03:58.931Z,54.92
2018-10-03T21:06:26.612Z,55.10
2018-10-03T21:08:54.247Z,55.32
2018-10-03T21:11:21.887Z,54.74
2018-10-03T21:13:49.547Z,55.05
2018-10-03T21:16:17.164Z,55.42
2018-10-03T21:18:44.755Z,55.04
2018-10-03T21:21:12.375Z,55.34
2018-10-03T21:23:39.983Z,55.01
2018-10-03T21:26:07.622Z,54.71
2018-10-03T21:28:35.222Z,55.25
2018-10-03T21:31:02.885Z,55.44
2018-10-03T21:33:30.491Z,55.39
2018-10-03T21:35:58.068Z,55.08
2018-10-03T21:38:25.716Z,55.15
2018-10-03T21:40:53.316Z,55.23
2018-10-03T21:43:20.888Z,55.19
2018-10-03T21:45:48.578Z,55.40
2018-10-03T21:48:16.252Z,54.78
2018-10-03T21:50:43.787Z,55.16
2018-10-03T21:53:11.378Z,55.30
2018-10-03T21:55:38.992Z,55.47
2018-10-03T21:58:06.675Z,54.83
2018-10-03T22:00:39.781Z,54.99
2018-10-03T22:03:07.437Z,55.45
2018-10-03T22:05:35.060Z,55.40
2018-10-03T22:08:02.641Z,55.11
2018-10-03T22:10:30.302Z,54.93
2018-10-03T22:12:57.876Z,54.95
2018-10-03T22:15:25.560Z,55.15
2018-10-03T22:17:53.165Z,55.13
2018-10-03T22:20:20.815Z,55.15
2018-10-03T22:22:48.537Z,55.39
2018-10-03T22:25:16.071Z,55.27
2018-10-03T22:27:43.655Z,55.58
2018-10-03T22:30:11.274Z,55.65
2018-10-03T22:32:38.911Z,55.65
2018-10-03T22:35:06.520Z,55.11
2018-10-03T22:37:34.170Z,55.05
2018-10-03T22:40:01.743Z,55.34
2018-10-03T22:42:29.334Z,55.50
2018-10-03T22:44:56.977Z,55.18
2018-10-03T22:47:24.599Z,55.64
2018-10-03T22:49:52.221Z,55.15
2018-10-03T22:52:19.883Z,55.42
2018-10-03T22:54:47.535Z,55.07
2018-10-03T22:57:15.147Z,55.73
2018-10-03T22:59:42.837Z,55.82
2018-10-03T23:02:10.417Z,55.18
2018-10-03T23:04:38.120Z,55.51
2018-10-03T23:07:05.710Z,55.80
2018-10-03T23:09:33.327Z,55.29
2018-10-03T23:12:00.924Z,55.77
2018-10-03T23:14:28.521Z,55.09
2018-10-03T23:16:56.102Z,55.42
2018-10-03T23:19:23.697Z,55.96
2018-10-03T23:21:51.320Z,55.56
2018-10-03T23:24:18.909Z,55.50
2018-10-03T23:26:46.612Z,55.99
2018-10-03T23:29:14.183Z,55.50
2018-10-03T23:31:41.843Z,55.88
2018-10-03T23:34:09.484Z,55.66
2018-10-03T23:36:37.112Z,55.31
2018-10-03T23:39:07.423Z,55.24
2018-10-03T23:41:35.109Z,55.49
2018-10-03T23:44:02.705Z,55.39
2018-10-03T23:46:30.331Z,55.67
2018-10-03T23:48:57.972Z,55.51
2018-10-03T23:51:25.561Z,55.71
2018-10-03T23:53:53.136Z,55.47
2018-10-03T23:56:20.775Z,55.64
2018-10-03T23:58:48.385Z,56.09
